createdAt,value
2019-04-03T00:00:20.563Z,3.45
2019-04-03T00:01:20.593Z,3.30
2019-04-03T00:02:20.621Z,3.30
2019-04-03T00:03:20.649Z,3.12
2019-04-03T00:04:20.681Z,3.00
2019-04-03T00:05:20.695Z,3.12
2019-04-03T00:06:20.722Z,3.03
2019-04-03T00:07:20.752Z,3.03
2019-04-03T00:08:20.778Z,2.93
2019-04-03T00:09:20.802Z,3.09
2019-04-03T00:10:20.830Z,3.03
2019-04-03T00:11:20.856Z,3.15
2019-04-03T00:12:20.884Z,3.21
2019-04-03T00:13:20.915Z,3.34
2019-04-03T00:14:20.938Z,3.52
2019-04-03T00:15:20.962Z,3.52
2019-04-03T00:16:20.987Z,3.45
2019-04-03T00:17:21.018Z,3.58
2019-04-03T00:18:21.042Z,3.52
2019-04-03T00:19:21.159Z,3.63
2019-04-03T00:20:21.093Z,3.59
2019-04-03T00:21:21.120Z,3.61
2019-04-03T00:22:21.954Z,3.68
2019-04-03T00:23:22.449Z,3.50
2019-04-03T00:24:22.617Z,3.53
2019-04-03T00:25:22.307Z,3.50
2019-04-03T00:26:22.444Z,3.37
2019-04-03T00:27:22.267Z,3.26
2019-04-03T00:28:22.345Z,3.37
2019-04-03T00:29:22.684Z,3.52
2019-04-03T00:30:22.509Z,3.48
2019-04-03T00:31:22.970Z,3.49
2019-04-03T00:32:21.820Z,3.56
2019-04-03T00:33:22.979Z,3.63
2019-04-03T00:34:23.006Z,3.67
2019-04-03T00:35:23.117Z,3.63
2019-04-03T00:36:23.247Z,3.66
2019-04-03T00:37:23.294Z,3.59
2019-04-03T00:38:23.929Z,3.61
2019-04-03T00:39:23.965Z,3.61
2019-04-03T00:40:23.990Z,3.66
2019-04-03T00:41:24.120Z,3.63
2019-04-03T00:42:24.062Z,3.56
2019-04-03T00:43:24.370Z,3.56
2019-04-03T00:44:23.994Z,3.61
2019-04-03T00:45:24.201Z,3.56
2019-04-03T00:46:22.836Z,3.50
2019-04-03T00:47:21.806Z,3.36
2019-04-03T00:48:21.832Z,3.52
2019-04-03T00:49:21.858Z,3.37
2019-04-03T00:50:21.887Z,3.34
2019-04-03T00:51:21.912Z,3.58
2019-04-03T00:52:21.937Z,3.55
2019-04-03T00:53:22.115Z,3.56
2019-04-03T00:54:21.993Z,3.43
2019-04-03T00:55:22.021Z,3.33
2019-04-03T00:56:22.046Z,3.41
2019-04-03T00:57:22.074Z,3.41
2019-04-03T00:58:22.096Z,3.34
2019-04-03T00:59:22.126Z,3.43
2019-04-03T01:00:22.156Z,3.37
2019-04-03T01:01:22.175Z,3.37
2019-04-03T01:02:22.205Z,3.36
2019-04-03T01:03:22.228Z,3.19
2019-04-03T01:04:22.378Z,3.18
2019-04-03T01:05:22.282Z,3.16
2019-04-03T01:06:22.309Z,3.16
2019-04-03T01:07:22.339Z,3.16
2019-04-03T01:08:22.359Z,3.19
2019-04-03T01:09:22.388Z,3.24
2019-04-03T01:10:22.614Z,3.16
2019-04-03T01:11:22.440Z,3.19
2019-04-03T01:12:22.470Z,3.31
2019-04-03T01:13:22.498Z,3.26
2019-04-03T01:14:22.520Z,3.18
2019-04-03T01:15:22.549Z,3.22
2019-04-03T01:16:22.572Z,3.16
2019-04-03T01:17:22.597Z,3.26
2019-04-03T01:18:22.632Z,3.40
2019-04-03T01:19:22.701Z,3.30
2019-04-03T01:20:22.677Z,3.31
2019-04-03T01:21:22.702Z,3.18
2019-04-03T01:22:22.731Z,3.11
2019-04-03T01:23:22.755Z,3.16
2019-04-03T01:24:22.788Z,3.26
2019-04-03T01:25:22.810Z,3.19
2019-04-03T01:26:22.833Z,3.13
2019-04-03T01:27:22.996Z,3.34
2019-04-03T01:28:22.888Z,3.34
2019-04-03T01:29:22.919Z,3.36
2019-04-03T01:30:22.943Z,3.30
2019-04-03T01:31:22.965Z,3.36
2019-04-03T01:32:22.995Z,3.43
2019-04-03T01:33:23.017Z,3.31
2019-04-03T01:34:23.045Z,3.30
2019-04-03T01:35:23.070Z,3.24
2019-04-03T01:36:23.096Z,3.15
2019-04-03T01:37:23.122Z,3.12
2019-04-03T01:38:23.152Z,3.08
2019-04-03T01:39:23.280Z,3.18
2019-04-03T01:40:23.204Z,3.16
2019-04-03T01:41:23.230Z,3.33
2019-04-03T01:42:23.257Z,3.45
2019-04-03T01:43:23.613Z,3.41
2019-04-03T01:44:24.701Z,3.41
2019-04-03T01:45:25.411Z,3.59
2019-04-03T01:46:23.358Z,3.53
2019-04-03T01:47:23.386Z,3.46
2019-04-03T01:48:23.411Z,3.49
2019-04-03T01:49:23.439Z,3.45
2019-04-03T01:50:23.468Z,3.43
2019-04-03T01:51:23.493Z,3.40
2019-04-03T01:52:23.632Z,3.34
2019-04-03T01:53:23.543Z,3.37
2019-04-03T01:54:23.573Z,3.34
2019-04-03T01:55:23.599Z,3.43
2019-04-03T01:56:23.668Z,3.27
2019-04-03T01:57:23.651Z,3.30
2019-04-03T01:58:23.676Z,3.30
2019-04-03T01:59:23.702Z,3.33
2019-04-03T02:00:23.727Z,3.29
2019-04-03T02:01:23.755Z,3.27
2019-04-03T02:02:23.781Z,3.30
2019-04-03T02:03:23.806Z,3.26
2019-04-03T02:04:23.834Z,3.37
2019-04-03T02:05:23.993Z,3.30
2019-04-03T02:06:23.884Z,3.26
2019-04-03T02:07:24.039Z,3.43
2019-04-03T02:08:23.936Z,3.40
2019-04-03T02:09:23.963Z,3.27
2019-04-03T02:10:24.225Z,3.12
2019-04-03T02:11:24.016Z,3.08
2019-04-03T02:12:24.050Z,3.03
2019-04-03T02:13:24.075Z,3.11
2019-04-03T02:14:24.101Z,3.26
2019-04-03T02:15:24.125Z,3.16
2019-04-03T02:16:24.148Z,3.13
2019-04-03T02:17:24.239Z,3.12
2019-04-03T02:18:25.459Z,3.13
2019-04-03T02:19:26.103Z,3.26
2019-04-03T02:20:26.129Z,3.13
2019-04-03T02:21:24.278Z,3.19
2019-04-03T02:22:24.454Z,3.29
2019-04-03T02:23:24.332Z,3.30
2019-04-03T02:24:24.526Z,3.19
2019-04-03T02:25:24.384Z,3.16
2019-04-03T02:26:24.418Z,3.19
2019-04-03T02:27:24.588Z,3.19
2019-04-03T02:28:24.461Z,3.27
2019-04-03T02:29:24.491Z,3.19
2019-04-03T02:30:24.521Z,3.27
2019-04-03T02:31:24.543Z,3.24
2019-04-03T02:32:24.933Z,3.26
2019-04-03T02:33:28.186Z,3.30
2019-04-03T02:34:24.624Z,3.29
2019-04-03T02:35:24.784Z,3.37
2019-04-03T02:36:24.702Z,3.30
2019-04-03T02:37:24.721Z,3.16
2019-04-03T02:38:24.727Z,3.09
2019-04-03T02:39:27.391Z,3.09
2019-04-03T02:40:24.779Z,3.06
2019-04-03T02:41:24.803Z,2.98
2019-04-03T02:42:24.830Z,2.95
2019-04-03T02:43:24.858Z,3.11
2019-04-03T02:44:24.885Z,2.95
2019-04-03T02:45:25.071Z,2.93
2019-04-03T02:46:26.943Z,3.00
2019-04-03T02:47:25.196Z,3.22
2019-04-03T02:48:24.987Z,3.15
2019-04-03T02:49:25.240Z,3.21
2019-04-03T02:50:25.429Z,3.03
2019-04-03T02:51:25.072Z,3.05
2019-04-03T02:52:25.621Z,3.18
2019-04-03T02:53:25.147Z,3.15
2019-04-03T02:54:25.147Z,3.16
2019-04-03T02:55:25.175Z,2.97
2019-04-03T02:56:25.201Z,2.97
2019-04-03T02:57:25.222Z,2.97
2019-04-03T02:58:25.257Z,2.94
2019-04-03T02:59:26.457Z,2.98
2019-04-03T03:00:25.305Z,2.94
2019-04-03T03:01:25.355Z,2.93
2019-04-03T03:02:25.674Z,2.97
2019-04-03T03:03:25.786Z,2.98
2019-04-03T03:04:25.415Z,2.88
2019-04-03T03:05:28.080Z,2.93
2019-04-03T03:06:25.463Z,2.97
2019-04-03T03:07:25.680Z,2.97
2019-04-03T03:08:25.629Z,3.00
2019-04-03T03:09:25.542Z,3.08
2019-04-03T03:10:25.582Z,3.05
2019-04-03T03:11:25.589Z,2.95
2019-04-03T03:12:27.694Z,3.01
2019-04-03T03:13:25.804Z,2.97
2019-04-03T03:14:25.668Z,3.05
2019-04-03T03:15:25.696Z,3.03
2019-04-03T03:16:25.964Z,2.97
2019-04-03T03:17:25.753Z,3.13
2019-04-03T03:18:27.225Z,2.93
2019-04-03T03:19:25.799Z,3.01
2019-04-03T03:20:25.827Z,3.00
2019-04-03T03:21:25.884Z,3.13
2019-04-03T03:22:25.875Z,3.03
2019-04-03T03:23:25.938Z,2.93
2019-04-03T03:24:28.419Z,2.97
2019-04-03T03:25:25.966Z,2.97
2019-04-03T03:26:25.978Z,3.12
2019-04-03T03:27:26.008Z,3.03
2019-04-03T03:28:26.030Z,3.08
2019-04-03T03:29:27.398Z,3.16
2019-04-03T03:30:40.001Z,3.21
2019-04-03T03:31:57.514Z,3.06
2019-04-03T03:32:32.555Z,3.00
2019-04-03T03:33:34.768Z,3.06
2019-04-03T03:34:48.221Z,3.11
2019-04-03T03:35:30.635Z,3.15
2019-04-03T03:36:26.826Z,3.16
2019-04-03T03:37:26.556Z,3.15
2019-04-03T03:38:28.130Z,3.15
2019-04-03T03:39:26.318Z,3.26
2019-04-03T03:40:26.355Z,3.30
2019-04-03T03:41:26.368Z,3.36
2019-04-03T03:42:30.112Z,3.33
2019-04-03T03:43:26.673Z,3.31
2019-04-03T03:44:26.466Z,3.31
2019-04-03T03:45:26.475Z,3.12
2019-04-03T03:46:27.819Z,3.03
2019-04-03T03:47:27.182Z,3.21
2019-04-03T03:48:26.563Z,3.22
2019-04-03T03:49:26.794Z,3.08
2019-04-03T03:50:26.736Z,3.06
2019-04-03T03:51:30.138Z,2.95
2019-04-03T03:52:26.667Z,2.98
2019-04-03T03:53:26.683Z,2.98
2019-04-03T03:54:26.713Z,2.98
2019-04-03T03:55:26.735Z,3.08
2019-04-03T03:56:30.768Z,2.98
2019-04-03T03:57:26.787Z,2.98
2019-04-03T03:58:26.815Z,2.95
2019-04-03T03:59:26.840Z,2.97
2019-04-03T04:00:26.867Z,2.91
2019-04-03T04:01:30.166Z,3.00
2019-04-03T04:02:26.917Z,2.82
2019-04-03T04:03:27.004Z,2.88
2019-04-03T04:04:27.276Z,2.79
2019-04-03T04:05:27.211Z,2.97
2019-04-03T04:06:29.044Z,2.95
2019-04-03T04:07:27.053Z,3.06
2019-04-03T04:08:27.444Z,3.01
2019-04-03T04:09:27.102Z,3.05
2019-04-03T04:10:27.127Z,3.12
2019-04-03T04:11:28.105Z,3.26
2019-04-03T04:12:27.178Z,3.40
2019-04-03T04:13:27.204Z,3.45
2019-04-03T04:14:27.233Z,3.46
2019-04-03T04:15:30.444Z,3.50
2019-04-03T04:16:27.656Z,3.64
2019-04-03T04:17:27.308Z,3.59
2019-04-03T04:18:27.347Z,3.63
2019-04-03T04:19:30.565Z,3.78
2019-04-03T04:20:27.390Z,3.77
2019-04-03T04:21:27.414Z,3.82
2019-04-03T04:22:28.127Z,3.89
2019-04-03T04:23:27.468Z,3.94
2019-04-03T04:24:27.976Z,4.04
2019-04-03T04:25:28.291Z,4.18
2019-04-03T04:26:27.547Z,4.22
2019-04-03T04:27:27.573Z,4.12
2019-04-03T04:28:27.603Z,4.20
2019-04-03T04:29:27.624Z,4.18
2019-04-03T04:30:27.650Z,4.10
2019-04-03T04:31:27.679Z,4.06
2019-04-03T04:32:27.897Z,4.00
2019-04-03T04:33:27.734Z,4.12
2019-04-03T04:34:27.759Z,4.28
2019-04-03T04:35:27.792Z,4.38
2019-04-03T04:36:27.813Z,4.45
2019-04-03T04:37:27.943Z,4.57
2019-04-03T04:38:27.867Z,4.89
2019-04-03T04:39:28.459Z,4.97
2019-04-03T04:40:28.984Z,5.20
2019-04-03T04:41:28.144Z,5.56
2019-04-03T04:42:27.977Z,5.54
2019-04-03T04:43:28.007Z,5.70
2019-04-03T04:44:28.027Z,5.62
2019-04-03T04:45:28.133Z,5.84
2019-04-03T04:46:28.085Z,5.77
2019-04-03T04:47:28.112Z,5.79
2019-04-03T04:48:28.138Z,6.01
2019-04-03T04:49:28.167Z,6.17
2019-04-03T04:50:28.194Z,6.43
2019-04-03T04:51:28.224Z,6.35
2019-04-03T04:52:28.301Z,6.57
2019-04-03T04:53:29.847Z,6.90
2019-04-03T04:54:28.746Z,6.97
2019-04-03T04:55:30.594Z,7.18
2019-04-03T04:56:28.539Z,7.05
2019-04-03T04:57:28.394Z,6.87
2019-04-03T04:58:28.425Z,6.96
2019-04-03T04:59:28.452Z,6.96
2019-04-03T05:00:29.890Z,6.97
2019-04-03T05:01:28.509Z,7.32
2019-04-03T05:02:28.543Z,7.62
2019-04-03T05:03:28.586Z,7.55
2019-04-03T05:04:28.597Z,7.58
2019-04-03T05:05:30.711Z,7.70
2019-04-03T05:06:29.643Z,8.06
2019-04-03T05:07:30.619Z,7.59
2019-04-03T05:08:28.717Z,7.44
2019-04-03T05:09:28.745Z,7.70
2019-04-03T05:10:28.777Z,7.59
2019-04-03T05:11:28.811Z,7.40
2019-04-03T05:12:28.836Z,7.14
2019-04-03T05:13:28.994Z,7.23
2019-04-03T05:14:29.000Z,7.50
2019-04-03T05:15:28.924Z,7.96
2019-04-03T05:16:28.954Z,8.03
2019-04-03T05:17:28.986Z,7.55
2019-04-03T05:18:29.615Z,7.66
2019-04-03T05:19:29.232Z,7.83
2019-04-03T05:20:29.079Z,7.99
2019-04-03T05:21:29.108Z,8.52
2019-04-03T05:22:29.140Z,7.81
2019-04-03T05:23:29.168Z,8.24
2019-04-03T05:24:29.531Z,8.14
2019-04-03T05:25:29.775Z,8.54
2019-04-03T05:26:31.909Z,8.75
2019-04-03T05:27:29.299Z,8.21
2019-04-03T05:28:29.326Z,8.06
2019-04-03T05:29:29.357Z,8.36
2019-04-03T05:30:29.389Z,8.74
2019-04-03T05:31:29.416Z,8.63
2019-04-03T05:32:29.737Z,9.02
2019-04-03T05:33:29.693Z,8.74
2019-04-03T05:34:29.513Z,8.18
2019-04-03T05:35:29.547Z,8.61
2019-04-03T05:36:29.578Z,9.22
2019-04-03T05:37:29.609Z,9.05
2019-04-03T05:38:29.836Z,9.00
2019-04-03T05:39:29.689Z,8.81
2019-04-03T05:40:29.702Z,8.78
2019-04-03T05:41:29.738Z,9.16
2019-04-03T05:42:29.770Z,9.05
2019-04-03T05:43:30.812Z,9.11
2019-04-03T05:44:32.852Z,9.09
2019-04-03T05:45:29.866Z,9.05
2019-04-03T05:46:30.109Z,9.42
2019-04-03T05:47:29.931Z,9.76
2019-04-03T05:48:29.966Z,9.09
2019-04-03T05:49:29.995Z,9.02
2019-04-03T05:50:30.107Z,9.16
2019-04-03T05:51:30.340Z,9.77
2019-04-03T05:52:30.097Z,9.82
2019-04-03T05:53:30.129Z,9.69
2019-04-03T05:54:30.162Z,9.56
2019-04-03T05:55:30.196Z,9.45
2019-04-03T05:56:30.226Z,9.26
2019-04-03T05:57:30.355Z,9.09
2019-04-03T05:58:30.298Z,8.57
2019-04-03T05:59:32.741Z,8.34
2019-04-03T06:00:30.554Z,8.53
2019-04-03T06:01:30.400Z,8.54
2019-04-03T06:02:30.427Z,8.87
2019-04-03T06:03:39.190Z,9.16
2019-04-03T06:04:30.492Z,9.18
2019-04-03T06:05:30.529Z,8.93
2019-04-03T06:06:30.580Z,9.21
2019-04-03T06:07:30.593Z,9.48
2019-04-03T06:08:30.628Z,9.42
2019-04-03T06:09:30.948Z,9.44
2019-04-03T06:10:32.390Z,9.47
2019-04-03T06:11:30.814Z,9.73
2019-04-03T06:12:30.762Z,9.82
2019-04-03T06:13:31.075Z,9.91
2019-04-03T06:14:30.830Z,9.80
2019-04-03T06:15:30.863Z,10.15
2019-04-03T06:16:31.066Z,10.25
2019-04-03T06:17:31.023Z,9.48
2019-04-03T06:18:31.974Z,9.64
2019-04-03T06:19:34.059Z,9.29
2019-04-03T06:20:31.032Z,9.72
2019-04-03T06:21:31.068Z,9.42
2019-04-03T06:22:31.101Z,9.18
2019-04-03T06:23:31.140Z,9.66
2019-04-03T06:24:31.172Z,10.21
2019-04-03T06:25:31.525Z,10.25
2019-04-03T06:26:31.239Z,10.20
2019-04-03T06:27:31.276Z,10.02
2019-04-03T06:28:31.399Z,9.94
2019-04-03T06:29:31.365Z,10.21
2019-04-03T06:30:31.637Z,11.00
2019-04-03T06:31:31.413Z,11.31
2019-04-03T06:32:31.447Z,11.30
2019-04-03T06:33:33.558Z,11.08
2019-04-03T06:34:31.602Z,11.34
2019-04-03T06:35:34.365Z,10.97
2019-04-03T06:36:31.590Z,10.86
2019-04-03T06:37:31.622Z,10.83
2019-04-03T06:38:31.659Z,11.08
2019-04-03T06:39:32.327Z,11.08
2019-04-03T06:40:32.059Z,10.55
2019-04-03T06:41:31.762Z,10.98
2019-04-03T06:42:31.799Z,10.06
2019-04-03T06:43:31.836Z,10.39
2019-04-03T06:44:31.874Z,11.07
2019-04-03T06:45:32.091Z,11.01
2019-04-03T06:46:31.943Z,11.00
2019-04-03T06:47:32.855Z,10.94
2019-04-03T06:48:32.014Z,10.69
2019-04-03T06:49:32.110Z,10.87
2019-04-03T06:50:32.085Z,10.97
2019-04-03T06:51:32.128Z,11.53
2019-04-03T06:52:32.164Z,11.27
2019-04-03T06:53:32.192Z,11.20
2019-04-03T06:54:32.408Z,11.30
2019-04-03T06:55:33.213Z,11.56
2019-04-03T06:56:32.544Z,11.08
2019-04-03T06:57:32.342Z,11.55
2019-04-03T06:58:38.000Z,10.76
2019-04-03T06:59:32.659Z,10.55
2019-04-03T07:00:32.524Z,10.87
2019-04-03T07:01:32.804Z,10.39
2019-04-03T07:02:32.528Z,11.19
2019-04-03T07:03:34.324Z,11.63
2019-04-03T07:04:32.598Z,11.35
2019-04-03T07:05:32.635Z,11.25
2019-04-03T07:06:32.670Z,11.65
2019-04-03T07:07:35.033Z,12.29
2019-04-03T07:08:35.620Z,11.73
2019-04-03T07:09:36.495Z,12.05
2019-04-03T07:10:32.818Z,11.58
2019-04-03T07:11:32.858Z,11.88
2019-04-03T07:12:32.957Z,11.60
2019-04-03T07:13:32.928Z,11.13
2019-04-03T07:14:32.969Z,10.87
2019-04-03T07:15:33.087Z,9.94
2019-04-03T07:16:33.042Z,10.18
2019-04-03T07:17:33.078Z,10.36
2019-04-03T07:18:33.120Z,9.85
2019-04-03T07:19:33.221Z,9.62
2019-04-03T07:20:33.192Z,9.77
2019-04-03T07:21:33.229Z,9.87
2019-04-03T07:22:33.267Z,9.56
2019-04-03T07:23:33.306Z,9.39
2019-04-03T07:24:33.342Z,9.66
2019-04-03T07:25:34.452Z,10.31
2019-04-03T07:26:33.630Z,10.31
2019-04-03T07:27:36.371Z,10.82
2019-04-03T07:28:33.496Z,10.39
2019-04-03T07:29:33.532Z,10.53
2019-04-03T07:30:33.568Z,9.94
2019-04-03T07:31:33.861Z,9.59
2019-04-03T07:32:33.642Z,9.63
2019-04-03T07:33:34.005Z,10.00
2019-04-03T07:34:34.598Z,9.12
2019-04-03T07:35:33.759Z,9.94
2019-04-03T07:36:33.791Z,10.72
2019-04-03T07:37:33.829Z,10.28
2019-04-03T07:38:33.866Z,10.28
2019-04-03T07:39:33.905Z,10.49
2019-04-03T07:40:33.941Z,11.25
2019-04-03T07:41:34.148Z,10.41
2019-04-03T07:42:34.017Z,10.20
2019-04-03T07:43:34.055Z,10.51
2019-04-03T07:44:34.091Z,10.82
2019-04-03T07:45:34.132Z,11.01
2019-04-03T07:46:34.170Z,10.98
2019-04-03T07:47:34.977Z,10.90
2019-04-03T07:48:35.678Z,9.81
2019-04-03T07:49:34.281Z,10.36
2019-04-03T07:50:36.495Z,10.25
2019-04-03T07:51:34.394Z,9.77
2019-04-03T07:52:34.396Z,9.08
2019-04-03T07:53:34.434Z,9.45
2019-04-03T07:54:34.721Z,10.27
2019-04-03T07:55:34.534Z,10.59
2019-04-03T07:56:34.552Z,10.07
2019-04-03T07:57:34.589Z,10.25
2019-04-03T07:58:34.626Z,10.45
2019-04-03T07:59:35.036Z,10.20
2019-04-03T08:00:37.892Z,10.67
2019-04-03T08:01:34.774Z,10.20
2019-04-03T08:02:34.777Z,10.67
2019-04-03T08:03:34.819Z,10.69
2019-04-03T08:04:34.853Z,10.21
2019-04-03T08:05:34.891Z,10.38
2019-04-03T08:06:36.024Z,10.75
2019-04-03T08:07:34.969Z,11.05
2019-04-03T08:08:35.007Z,10.49
2019-04-03T08:09:35.046Z,10.30
2019-04-03T08:10:37.252Z,10.86
2019-04-03T08:11:37.236Z,11.00
2019-04-03T08:12:35.915Z,10.79
2019-04-03T08:13:37.626Z,10.92
2019-04-03T08:14:35.238Z,11.19
2019-04-03T08:15:35.299Z,10.77
2019-04-03T08:16:35.559Z,10.03
2019-04-03T08:17:35.355Z,10.69
2019-04-03T08:18:35.740Z,11.01
2019-04-03T08:19:35.764Z,11.23
2019-04-03T08:20:35.473Z,11.22
2019-04-03T08:21:35.517Z,11.08
2019-04-03T08:22:35.806Z,10.89
2019-04-03T08:23:37.035Z,10.61
2019-04-03T08:24:35.628Z,10.61
2019-04-03T08:25:35.679Z,10.42
2019-04-03T08:26:35.824Z,11.53
2019-04-03T08:27:35.826Z,11.27
2019-04-03T08:28:35.785Z,12.08
2019-04-03T08:29:37.904Z,12.39
2019-04-03T08:30:37.054Z,11.48
2019-04-03T08:31:36.225Z,11.34
2019-04-03T08:32:35.945Z,11.12
2019-04-03T08:33:35.986Z,10.83
2019-04-03T08:34:36.022Z,11.74
2019-04-03T08:35:36.474Z,11.81
2019-04-03T08:36:38.729Z,11.96
2019-04-03T08:37:36.139Z,12.18
2019-04-03T08:38:36.432Z,12.65
2019-04-03T08:39:36.583Z,12.65
2019-04-03T08:40:36.260Z,11.37
2019-04-03T08:41:37.382Z,11.23
2019-04-03T08:42:36.338Z,11.86
2019-04-03T08:43:36.682Z,12.05
2019-04-03T08:44:36.521Z,12.45
2019-04-03T08:45:38.494Z,13.12
2019-04-03T08:46:36.496Z,13.50
2019-04-03T08:47:37.566Z,12.51
2019-04-03T08:48:36.577Z,12.81
2019-04-03T08:49:36.619Z,12.65
2019-04-03T08:50:36.657Z,12.29
2019-04-03T08:51:36.703Z,12.94
2019-04-03T08:52:37.092Z,12.53
2019-04-03T08:53:39.312Z,11.93
2019-04-03T08:54:36.819Z,11.80
2019-04-03T08:55:36.860Z,12.12
2019-04-03T08:56:36.903Z,12.54
2019-04-03T08:57:36.948Z,12.78
2019-04-03T08:58:37.113Z,13.20
2019-04-03T08:59:37.022Z,13.45
2019-04-03T09:00:37.146Z,13.27
2019-04-03T09:01:37.403Z,12.08
2019-04-03T09:02:37.143Z,12.53
2019-04-03T09:03:37.184Z,13.20
2019-04-03T09:04:37.224Z,13.23
2019-04-03T09:05:37.534Z,13.40
2019-04-03T09:06:37.420Z,13.24
2019-04-03T09:07:37.347Z,13.03
2019-04-03T09:08:37.395Z,13.40
2019-04-03T09:09:37.431Z,13.13
2019-04-03T09:10:37.671Z,12.75
2019-04-03T09:11:37.775Z,13.42
2019-04-03T09:12:38.456Z,14.28
2019-04-03T09:13:37.599Z,14.36
2019-04-03T09:14:37.633Z,14.78
2019-04-03T09:15:37.681Z,15.04
2019-04-03T09:16:37.867Z,14.85
2019-04-03T09:17:37.759Z,14.85
2019-04-03T09:18:38.349Z,15.08
2019-04-03T09:19:41.065Z,15.39
2019-04-03T09:20:37.940Z,15.02
2019-04-03T09:21:37.923Z,15.65
2019-04-03T09:22:37.966Z,16.17
2019-04-03T09:23:38.003Z,16.28
2019-04-03T09:24:38.044Z,15.92
2019-04-03T09:25:38.181Z,15.78
2019-04-03T09:26:38.316Z,15.37
2019-04-03T09:27:40.373Z,15.08
2019-04-03T09:28:41.400Z,15.98
2019-04-03T09:29:38.562Z,16.10
2019-04-03T09:30:38.292Z,15.57
2019-04-03T09:31:38.339Z,16.18
2019-04-03T09:32:38.381Z,16.73
2019-04-03T09:33:38.489Z,17.44
2019-04-03T09:34:38.460Z,17.13
2019-04-03T09:35:38.747Z,16.34
2019-04-03T09:36:38.615Z,15.91
2019-04-03T09:37:38.838Z,15.12
2019-04-03T09:38:40.712Z,15.12
2019-04-03T09:39:38.674Z,15.19
2019-04-03T09:40:38.714Z,15.59
2019-04-03T09:41:38.754Z,16.05
2019-04-03T09:42:38.801Z,15.80
2019-04-03T09:43:39.910Z,15.52
2019-04-03T09:44:38.882Z,15.80
2019-04-03T09:45:38.925Z,15.52
2019-04-03T09:46:38.968Z,15.10
2019-04-03T09:47:39.014Z,15.45
2019-04-03T09:48:39.258Z,15.57
2019-04-03T09:49:42.653Z,15.88
2019-04-03T09:50:39.137Z,16.05
2019-04-03T09:51:39.184Z,16.26
2019-04-03T09:52:47.675Z,16.86
2019-04-03T09:53:39.262Z,16.37
2019-04-03T09:54:39.407Z,16.39
2019-04-03T09:55:39.350Z,16.00
2019-04-03T09:56:54.464Z,16.03
2019-04-03T09:57:39.735Z,16.08
2019-04-03T09:58:39.707Z,16.74
2019-04-03T09:59:39.596Z,16.66
2019-04-03T10:00:41.349Z,16.46
2019-04-03T10:01:39.608Z,16.26
2019-04-03T10:02:39.645Z,16.09
2019-04-03T10:03:39.690Z,15.54
2019-04-03T10:04:39.931Z,14.99
2019-04-03T10:05:39.771Z,14.77
2019-04-03T10:06:39.814Z,14.85
2019-04-03T10:07:39.858Z,15.30
2019-04-03T10:08:40.374Z,16.17
2019-04-03T10:09:43.212Z,15.36
2019-04-03T10:10:40.230Z,15.87
2019-04-03T10:11:40.036Z,16.29
2019-04-03T10:12:40.133Z,16.03
2019-04-03T10:13:40.108Z,15.98
2019-04-03T10:14:40.281Z,15.91
2019-04-03T10:15:40.356Z,15.73
2019-04-03T10:16:40.235Z,15.51
2019-04-03T10:17:40.281Z,15.51
2019-04-03T10:18:41.791Z,15.41
2019-04-03T10:19:40.364Z,14.99
2019-04-03T10:20:40.405Z,15.14
2019-04-03T10:21:41.021Z,15.02
2019-04-03T10:22:40.566Z,14.71
2019-04-03T10:23:40.533Z,14.82
2019-04-03T10:24:40.761Z,14.62
2019-04-03T10:25:40.617Z,14.08
2019-04-03T10:26:40.992Z,14.37
2019-04-03T10:27:43.170Z,14.74
2019-04-03T10:28:42.544Z,14.89
2019-04-03T10:29:40.954Z,14.89
2019-04-03T10:30:40.826Z,15.33
2019-04-03T10:31:40.874Z,14.62
2019-04-03T10:32:40.910Z,14.99
2019-04-03T10:33:40.954Z,15.25
2019-04-03T10:34:41.368Z,15.04
2019-04-03T10:35:41.037Z,15.11
2019-04-03T10:36:42.027Z,15.48
2019-04-03T10:37:41.369Z,15.04
2019-04-03T10:38:42.680Z,14.89
2019-04-03T10:39:44.240Z,14.78
2019-04-03T10:40:41.246Z,14.49
2019-04-03T10:41:41.663Z,14.82
2019-04-03T10:42:41.379Z,15.27
2019-04-03T10:43:41.376Z,15.12
2019-04-03T10:44:41.414Z,14.55
2019-04-03T10:45:41.668Z,15.19
2019-04-03T10:46:41.494Z,15.50
2019-04-03T10:47:44.168Z,15.72
2019-04-03T10:48:41.582Z,15.78
2019-04-03T10:49:41.629Z,15.50
2019-04-03T10:50:41.663Z,14.90
2019-04-03T10:51:42.111Z,15.17
2019-04-03T10:52:44.174Z,15.12
2019-04-03T10:53:42.029Z,15.43
2019-04-03T10:54:41.829Z,14.94
2019-04-03T10:55:41.869Z,15.59
2019-04-03T10:56:41.984Z,16.03
2019-04-03T10:57:41.953Z,15.60
2019-04-03T10:58:43.626Z,15.48
2019-04-03T10:59:42.037Z,15.57
2019-04-03T11:00:42.080Z,15.43
2019-04-03T11:01:42.153Z,15.80
2019-04-03T11:02:42.162Z,15.22
2019-04-03T11:03:42.203Z,14.48
2019-04-03T11:04:42.242Z,14.99
2019-04-03T11:05:42.626Z,14.63
2019-04-03T11:06:42.346Z,15.35
2019-04-03T11:07:42.368Z,15.62
2019-04-03T11:08:42.408Z,15.81
2019-04-03T11:09:42.451Z,15.43
2019-04-03T11:10:42.492Z,15.18
2019-04-03T11:11:43.638Z,14.90
2019-04-03T11:12:42.574Z,14.97
2019-04-03T11:13:42.622Z,14.40
2019-04-03T11:14:42.662Z,14.94
2019-04-03T11:15:44.715Z,14.73
2019-04-03T11:16:45.934Z,14.97
2019-04-03T11:17:42.781Z,15.44
2019-04-03T11:18:42.825Z,15.37
2019-04-03T11:19:44.193Z,14.74
2019-04-03T11:20:42.905Z,15.04
2019-04-03T11:21:44.055Z,15.50
2019-04-03T11:22:43.542Z,14.94
2019-04-03T11:23:45.041Z,15.67
2019-04-03T11:24:43.328Z,15.39
2019-04-03T11:25:45.909Z,15.29
2019-04-03T11:26:43.167Z,15.59
2019-04-03T11:27:45.065Z,15.04
2019-04-03T11:28:43.682Z,14.92
2019-04-03T11:29:43.374Z,15.70
2019-04-03T11:30:43.321Z,15.48
2019-04-03T11:31:43.477Z,15.78
2019-04-03T11:32:43.780Z,15.10
2019-04-03T11:33:45.611Z,15.30
2019-04-03T11:34:43.563Z,15.14
2019-04-03T11:35:43.597Z,15.18
2019-04-03T11:36:43.868Z,14.63
2019-04-03T11:37:43.755Z,15.33
2019-04-03T11:38:43.655Z,16.16
2019-04-03T11:39:44.076Z,16.02
2019-04-03T11:40:43.892Z,15.99
2019-04-03T11:41:43.776Z,15.90
2019-04-03T11:42:43.817Z,15.94
2019-04-03T11:43:44.196Z,15.99
2019-04-03T11:44:43.898Z,16.39
2019-04-03T11:45:44.072Z,16.59
2019-04-03T11:46:43.982Z,15.32
2019-04-03T11:47:46.048Z,14.92
2019-04-03T11:48:44.064Z,14.34
2019-04-03T11:49:44.106Z,14.26
2019-04-03T11:50:44.364Z,14.87
2019-04-03T11:51:44.189Z,14.59
2019-04-03T11:52:44.336Z,14.44
2019-04-03T11:53:45.489Z,15.33
2019-04-03T11:54:44.312Z,15.41
2019-04-03T11:55:44.356Z,15.32
2019-04-03T11:56:45.243Z,15.60
2019-04-03T11:57:47.384Z,15.72
2019-04-03T11:58:44.479Z,14.68
2019-04-03T11:59:46.857Z,14.45
2019-04-03T12:00:44.564Z,14.00
2019-04-03T12:01:44.608Z,14.16
2019-04-03T12:02:45.104Z,14.56
2019-04-03T12:03:44.687Z,14.79
2019-04-03T12:04:44.727Z,14.89
2019-04-03T12:05:45.763Z,14.73
2019-04-03T12:06:44.810Z,14.62
2019-04-03T12:07:44.855Z,14.38
2019-04-03T12:08:45.693Z,14.79
2019-04-03T12:09:44.933Z,15.11
2019-04-03T12:10:44.985Z,14.62
2019-04-03T12:11:45.019Z,14.99
2019-04-03T12:12:45.058Z,14.79
2019-04-03T12:13:46.114Z,13.24
2019-04-03T12:14:45.142Z,13.20
2019-04-03T12:15:45.183Z,13.50
2019-04-03T12:16:45.223Z,13.64
2019-04-03T12:17:45.597Z,14.03
2019-04-03T12:18:45.302Z,14.01
2019-04-03T12:19:46.108Z,14.61
2019-04-03T12:20:46.614Z,14.78
2019-04-03T12:21:45.618Z,14.82
2019-04-03T12:22:45.476Z,15.10
2019-04-03T12:23:45.506Z,15.04
2019-04-03T12:24:45.548Z,15.23
2019-04-03T12:25:45.895Z,15.30
2019-04-03T12:26:45.634Z,14.92
2019-04-03T12:27:46.548Z,15.14
2019-04-03T12:28:46.893Z,14.79
2019-04-03T12:29:45.751Z,15.18
2019-04-03T12:30:45.941Z,15.39
2019-04-03T12:31:45.888Z,15.00
2019-04-03T12:32:49.409Z,15.36
2019-04-03T12:33:53.898Z,14.87
2019-04-03T12:34:46.434Z,15.04
2019-04-03T12:35:46.224Z,15.18
2019-04-03T12:36:46.594Z,15.76
2019-04-03T12:37:46.176Z,15.35
2019-04-03T12:38:46.119Z,15.41
2019-04-03T12:39:46.234Z,15.25
2019-04-03T12:40:46.205Z,15.73
2019-04-03T12:41:46.242Z,15.67
2019-04-03T12:42:46.282Z,15.67
2019-04-03T12:43:47.866Z,15.62
2019-04-03T12:44:46.657Z,16.05
2019-04-03T12:45:46.406Z,15.90
2019-04-03T12:46:46.793Z,15.91
2019-04-03T12:47:46.637Z,15.88
2019-04-03T12:48:46.579Z,15.78
2019-04-03T12:49:46.978Z,16.22
2019-04-03T12:50:46.903Z,15.69
2019-04-03T12:51:46.657Z,15.29
2019-04-03T12:52:46.694Z,15.62
2019-04-03T12:53:48.460Z,15.92
2019-04-03T12:54:48.886Z,15.92
2019-04-03T12:55:46.818Z,15.98
2019-04-03T12:56:46.858Z,15.99
2019-04-03T12:57:47.231Z,15.84
2019-04-03T12:58:46.945Z,15.94
2019-04-03T12:59:48.119Z,15.29
2019-04-03T13:00:47.224Z,15.19
2019-04-03T13:01:49.210Z,15.80
2019-04-03T13:02:47.104Z,15.91
2019-04-03T13:03:47.306Z,16.09
2019-04-03T13:04:47.182Z,15.84
2019-04-03T13:05:49.058Z,15.18